sensor_id;sensor_type;location;lat;lon;timestamp;temperature;humidity
10123;DHT22;5101;49.038;8.710;2024-03-22T00:01:14;10.20;99.90
10123;DHT22;5101;49.038;8.710;2024-03-22T00:03:40;10.20;99.90
10123;DHT22;5101;49.038;8.710;2024-03-22T00:06:05;10.20;99.90
10123;DHT22;5101;49.038;8.710;2024-03-22T00:08:31;10.20;99.90
10123;DHT22;5101;49.038;8.710;2024-03-22T00:10:56;10.10;99.90
10123;DHT22;5101;49.038;8.710;2024-03-22T00:13:21;10.10;99.90
10123;DHT22;5101;49.038;8.710;2024-03-22T00:15:47;10.10;99.90
10123;DHT22;5101;49.038;8.710;2024-03-22T00:18:12;10.00;99.90
10123;DHT22;5101;49.038;8.710;2024-03-22T00:20:38;10.00;99.90
10123;DHT22;5101;49.038;8.710;2024-03-22T00:23:03;10.00;99.90
10123;DHT22;5101;49.038;8.710;2024-03-22T00:25:30;9.90;99.90
10123;DHT22;5101;49.038;8.710;2024-03-22T00:27:56;9.90;99.90
10123;DHT22;5101;49.038;8.710;2024-03-22T00:30:22;9.80;99.90
10123;DHT22;5101;49.038;8.710;2024-03-22T00:32:47;9.80;99.90
10123;DHT22;5101;49.038;8.710;2024-03-22T00:35:13;9.70;99.90
10123;DHT22;5101;49.038;8.710;2024-03-22T00:37:38;9.70;99.90
10123;DHT22;5101;49.038;8.710;2024-03-22T00:40:04;9.70;99.90
10123;DHT22;5101;49.038;8.710;2024-03-22T00:42:30;9.60;99.90
10123;DHT22;5101;49.038;8.710;2024-03-22T00:44:56;9.60;99.90
10123;DHT22;5101;49.038;8.710;2024-03-22T00:47:23;9.50;99.90
10123;DHT22;5101;49.038;8.710;2024-03-22T00:49:48;9.50;99.90
10123;DHT22;5101;49.038;8.710;2024-03-22T00:52:14;9.40;99.90
10123;DHT22;5101;49.038;8.710;2024-03-22T00:54:39;9.40;99.90
10123;DHT22;5101;49.038;8.710;2024-03-22T00:57:07;9.40;99.90
10123;DHT22;5101;49.038;8.710;2024-03-22T00:59:32;9.30;99.90
10123;DHT22;5101;49.038;8.710;2024-03-22T01:01:58;9.30;99.90
10123;DHT22;5101;49.038;8.710;2024-03-22T01:04:23;9.30;99.90
10123;DHT22;5101;49.038;8.710;2024-03-22T01:06:49;9.20;99.90
10123;DHT22;5101;49.038;8.710;2024-03-22T01:09:14;9.20;99.90
10123;DHT22;5101;49.038;8.710;2024-03-22T01:11:40;9.10;99.90
10123;DHT22;5101;49.038;8.710;2024-03-22T01:14:05;9.10;99.90
10123;DHT22;5101;49.038;8.710;2024-03-22T01:16:31;9.10;99.90
10123;DHT22;5101;49.038;8.710;2024-03-22T01:18:56;9.10;99.90
10123;DHT22;5101;49.038;8.710;2024-03-22T01:21:22;9.00;99.90
10123;DHT22;5101;49.038;8.710;2024-03-22T01:23:51;8.90;99.90
10123;DHT22;5101;49.038;8.710;2024-03-22T01:26:17;8.80;99.90
10123;DHT22;5101;49.038;8.710;2024-03-22T01:28:42;8.90;99.90
10123;DHT22;5101;49.038;8.710;2024-03-22T01:31:08;8.80;99.90
10123;DHT22;5101;49.038;8.710;2024-03-22T01:33:33;8.80;99.90
10123;DHT22;5101;49.038;8.710;2024-03-22T01:35:59;8.80;99.90
10123;DHT22;5101;49.038;8.710;2024-03-22T01:38:24;8.70;99.90
10123;DHT22;5101;49.038;8.710;2024-03-22T01:40:50;8.70;99.90
10123;DHT22;5101;49.038;8.710;2024-03-22T01:43:15;8.60;99.90
10123;DHT22;5101;49.038;8.710;2024-03-22T01:45:41;8.60;99.90
10123;DHT22;5101;49.038;8.710;2024-03-22T01:48:07;8.60;99.90
10123;DHT22;5101;49.038;8.710;2024-03-22T01:50:33;8.60;99.90
10123;DHT22;5101;49.038;8.710;2024-03-22T01:52:59;8.60;99.90
10123;DHT22;5101;49.038;8.710;2024-03-22T01:55:27;8.50;99.90
10123;DHT22;5101;49.038;8.710;2024-03-22T01:57:52;8.50;99.90
10123;DHT22;5101;49.038;8.710;2024-03-22T02:00:19;8.50;99.90
10123;DHT22;5101;49.038;8.710;2024-03-22T02:02:44;8.50;99.90
10123;DHT22;5101;49.038;8.710;2024-03-22T02:05:14;8.50;99.90
10123;DHT22;5101;49.038;8.710;2024-03-22T02:07:40;8.50;99.90
10123;DHT22;5101;49.038;8.710;2024-03-22T02:10:06;8.40;99.90
10123;DHT22;5101;49.038;8.710;2024-03-22T02:12:33;8.40;99.90
10123;DHT22;5101;49.038;8.710;2024-03-22T02:14:59;8.40;99.90
10123;DHT22;5101;49.038;8.710;2024-03-22T02:17:25;8.40;99.90
10123;DHT22;5101;49.038;8.710;2024-03-22T02:19:50;8.40;99.90
10123;DHT22;5101;49.038;8.710;2024-03-22T02:22:16;8.40;99.90
10123;DHT22;5101;49.038;8.710;2024-03-22T02:24:41;8.40;99.90
10123;DHT22;5101;49.038;8.710;2024-03-22T02:27:07;8.40;99.90
10123;DHT22;5101;49.038;8.710;2024-03-22T02:29:32;8.30;99.90
10123;DHT22;5101;49.038;8.710;2024-03-22T02:31:58;8.30;99.90
10123;DHT22;5101;49.038;8.710;2024-03-22T02:34:23;8.20;99.90
10123;DHT22;5101;49.038;8.710;2024-03-22T02:36:49;8.20;99.90
10123;DHT22;5101;49.038;8.710;2024-03-22T02:39:15;8.30;99.90
10123;DHT22;5101;49.038;8.710;2024-03-22T02:41:40;8.20;99.90
10123;DHT22;5101;49.038;8.710;2024-03-22T02:44:06;8.30;99.90
10123;DHT22;5101;49.038;8.710;2024-03-22T02:46:31;8.30;99.90
10123;DHT22;5101;49.038;8.710;2024-03-22T02:48:57;8.30;99.90
10123;DHT22;5101;49.038;8.710;2024-03-22T02:51:22;8.30;99.90
10123;DHT22;5101;49.038;8.710;2024-03-22T02:53:48;8.30;99.90
10123;DHT22;5101;49.038;8.710;2024-03-22T02:56:13;8.30;99.90
10123;DHT22;5101;49.038;8.710;2024-03-22T02:58:40;8.20;99.90
10123;DHT22;5101;49.038;8.710;2024-03-22T03:01:05;8.30;99.90
10123;DHT22;5101;49.038;8.710;2024-03-22T03:03:31;8.30;99.90
10123;DHT22;5101;49.038;8.710;2024-03-22T03:05:57;8.30;99.90
10123;DHT22;5101;49.038;8.710;2024-03-22T03:08:22;8.30;99.90
10123;DHT22;5101;49.038;8.710;2024-03-22T03:10:47;8.30;99.90
10123;DHT22;5101;49.038;8.710;2024-03-22T03:13:13;8.30;99.90
10123;DHT22;5101;49.038;8.710;2024-03-22T03:15:39;8.30;99.90
10123;DHT22;5101;49.038;8.710;2024-03-22T03:18:04;8.30;99.90
10123;DHT22;5101;49.038;8.710;2024-03-22T03:20:30;8.30;99.90
10123;DHT22;5101;49.038;8.710;2024-03-22T03:22:55;8.30;99.90
10123;DHT22;5101;49.038;8.710;2024-03-22T03:25:25;8.30;99.90
10123;DHT22;5101;49.038;8.710;2024-03-22T03:27:50;8.30;99.90
10123;DHT22;5101;49.038;8.710;2024-03-22T03:30:16;8.30;99.90
10123;DHT22;5101;49.038;8.710;2024-03-22T03:32:41;8.40;99.90
10123;DHT22;5101;49.038;8.710;2024-03-22T03:35:07;8.30;99.90
10123;DHT22;5101;49.038;8.710;2024-03-22T03:37:33;8.40;99.90
10123;DHT22;5101;49.038;8.710;2024-03-22T03:39:58;8.30;99.90
10123;DHT22;5101;49.038;8.710;2024-03-22T03:42:24;8.40;99.90
10123;DHT22;5101;49.038;8.710;2024-03-22T03:44:49;8.40;99.90
10123;DHT22;5101;49.038;8.710;2024-03-22T03:47:15;8.40;99.90
10123;DHT22;5101;49.038;8.710;2024-03-22T03:49:40;8.40;99.90
10123;DHT22;5101;49.038;8.710;2024-03-22T03:52:06;8.40;99.90
10123;DHT22;5101;49.038;8.710;2024-03-22T03:54:32;8.40;99.90
10123;DHT22;5101;49.038;8.710;2024-03-22T03:56:57;8.40;99.90
10123;DHT22;5101;49.038;8.710;2024-03-22T03:59:23;8.40;99.90
10123;DHT22;5101;49.038;8.710;2024-03-22T04:01:48;8.40;99.90
10123;DHT22;5101;49.038;8.710;2024-03-22T04:04:14;8.30;99.90
10123;DHT22;5101;49.038;8.710;2024-03-22T04:06:39;8.40;99.90
10123;DHT22;5101;49.038;8.710;2024-03-22T04:09:05;8.40;99.90
10123;DHT22;5101;49.038;8.710;2024-03-22T04:11:30;8.30;99.90
10123;DHT22;5101;49.038;8.710;2024-03-22T04:13:56;8.30;99.90
10123;DHT22;5101;49.038;8.710;2024-03-22T04:16:21;8.30;99.90
10123;DHT22;5101;49.038;8.710;2024-03-22T04:18:47;8.30;99.90
10123;DHT22;5101;49.038;8.710;2024-03-22T04:21:13;8.30;99.90
10123;DHT22;5101;49.038;8.710;2024-03-22T04:23:38;8.30;99.90
10123;DHT22;5101;49.038;8.710;2024-03-22T04:26:04;8.40;99.90
10123;DHT22;5101;49.038;8.710;2024-03-22T04:28:30;8.40;99.90
10123;DHT22;5101;49.038;8.710;2024-03-22T04:33:24;8.40;99.90
10123;DHT22;5101;49.038;8.710;2024-03-22T04:35:50;8.40;99.90
10123;DHT22;5101;49.038;8.710;2024-03-22T04:38:15;8.40;99.90
10123;DHT22;5101;49.038;8.710;2024-03-22T04:40:41;8.40;99.90
10123;DHT22;5101;49.038;8.710;2024-03-22T04:43:07;8.40;99.90
10123;DHT22;5101;49.038;8.710;2024-03-22T04:45:32;8.30;99.90
10123;DHT22;5101;49.038;8.710;2024-03-22T04:47:58;8.30;99.90
10123;DHT22;5101;49.038;8.710;2024-03-22T04:50:23;8.30;99.90
10123;DHT22;5101;49.038;8.710;2024-03-22T04:52:49;8.30;99.90
10123;DHT22;5101;49.038;8.710;2024-03-22T04:55:14;8.30;99.90
10123;DHT22;5101;49.038;8.710;2024-03-22T04:57:40;8.30;99.90
10123;DHT22;5101;49.038;8.710;2024-03-22T05:00:06;8.30;99.90
10123;DHT22;5101;49.038;8.710;2024-03-22T05:02:33;8.30;99.90
10123;DHT22;5101;49.038;8.710;2024-03-22T05:04:59;8.30;99.90
10123;DHT22;5101;49.038;8.710;2024-03-22T05:07:24;8.30;99.90
10123;DHT22;5101;49.038;8.710;2024-03-22T05:09:50;8.30;99.90
10123;DHT22;5101;49.038;8.710;2024-03-22T05:12:15;8.20;99.90
10123;DHT22;5101;49.038;8.710;2024-03-22T05:14:41;8.20;99.90
10123;DHT22;5101;49.038;8.710;2024-03-22T05:17:06;8.20;99.90
10123;DHT22;5101;49.038;8.710;2024-03-22T05:19:32;8.20;99.90
10123;DHT22;5101;49.038;8.710;2024-03-22T05:21:57;8.20;99.90
10123;DHT22;5101;49.038;8.710;2024-03-22T05:24:24;8.20;99.90
10123;DHT22;5101;49.038;8.710;2024-03-22T05:26:49;8.20;99.90
10123;DHT22;5101;49.038;8.710;2024-03-22T05:29:15;8.20;99.90
10123;DHT22;5101;49.038;8.710;2024-03-22T05:31:48;8.10;99.90
10123;DHT22;5101;49.038;8.710;2024-03-22T05:34:14;8.10;99.90
10123;DHT22;5101;49.038;8.710;2024-03-22T05:36:40;8.00;99.90
10123;DHT22;5101;49.038;8.710;2024-03-22T05:39:06;8.00;99.90
10123;DHT22;5101;49.038;8.710;2024-03-22T05:41:31;8.10;99.90
10123;DHT22;5101;49.038;8.710;2024-03-22T05:43:56;8.00;99.90
10123;DHT22;5101;49.038;8.710;2024-03-22T05:46:22;7.90;99.90
10123;DHT22;5101;49.038;8.710;2024-03-22T05:48:47;8.00;99.90
10123;DHT22;5101;49.038;8.710;2024-03-22T05:51:15;8.00;99.90
10123;DHT22;5101;49.038;8.710;2024-03-22T05:53:41;8.00;99.90
10123;DHT22;5101;49.038;8.710;2024-03-22T05:56:07;8.00;99.90
10123;DHT22;5101;49.038;8.710;2024-03-22T05:58:34;8.10;99.90
10123;DHT22;5101;49.038;8.710;2024-03-22T06:00:59;8.10;99.90
10123;DHT22;5101;49.038;8.710;2024-03-22T06:03:25;8.20;99.90
10123;DHT22;5101;49.038;8.710;2024-03-22T06:05:51;8.00;99.90
10123;DHT22;5101;49.038;8.710;2024-03-22T06:08:20;8.10;99.90
10123;DHT22;5101;49.038;8.710;2024-03-22T06:10:46;8.10;99.90
10123;DHT22;5101;49.038;8.710;2024-03-22T06:13:12;8.10;99.90
10123;DHT22;5101;49.038;8.710;2024-03-22T06:15:37;8.10;99.90
10123;DHT22;5101;49.038;8.710;2024-03-22T06:18:03;8.10;99.90
10123;DHT22;5101;49.038;8.710;2024-03-22T06:20:28;8.20;99.90
10123;DHT22;5101;49.038;8.710;2024-03-22T06:22:53;8.20;99.90
10123;DHT22;5101;49.038;8.710;2024-03-22T06:25:19;8.30;99.90
10123;DHT22;5101;49.038;8.710;2024-03-22T06:27:44;8.30;99.90
10123;DHT22;5101;49.038;8.710;2024-03-22T06:30:10;8.30;99.90
10123;DHT22;5101;49.038;8.710;2024-03-22T06:32:36;8.40;99.90
10123;DHT22;5101;49.038;8.710;2024-03-22T06:35:01;8.50;99.90
10123;DHT22;5101;49.038;8.710;2024-03-22T06:37:31;8.50;99.90
10123;DHT22;5101;49.038;8.710;2024-03-22T06:39:56;8.60;99.90
10123;DHT22;5101;49.038;8.710;2024-03-22T06:42:23;8.80;99.90
10123;DHT22;5101;49.038;8.710;2024-03-22T06:44:52;8.90;99.90
10123;DHT22;5101;49.038;8.710;2024-03-22T06:47:17;9.00;99.90
10123;DHT22;5101;49.038;8.710;2024-03-22T06:49:46;9.20;99.90
10123;DHT22;5101;49.038;8.710;2024-03-22T06:52:11;9.30;99.90
10123;DHT22;5101;49.038;8.710;2024-03-22T06:54:37;9.50;99.90
10123;DHT22;5101;49.038;8.710;2024-03-22T06:57:02;9.80;99.90
10123;DHT22;5101;49.038;8.710;2024-03-22T06:59:28;10.00;99.90
10123;DHT22;5101;49.038;8.710;2024-03-22T07:01:53;10.30;99.90
10123;DHT22;5101;49.038;8.710;2024-03-22T07:04:19;10.50;99.90
10123;DHT22;5101;49.038;8.710;2024-03-22T07:06:44;10.80;99.90
10123;DHT22;5101;49.038;8.710;2024-03-22T07:09:10;11.10;99.90
10123;DHT22;5101;49.038;8.710;2024-03-22T07:11:35;11.40;99.90
10123;DHT22;5101;49.038;8.710;2024-03-22T07:14:01;11.70;99.90
10123;DHT22;5101;49.038;8.710;2024-03-22T07:16:26;11.90;99.90
10123;DHT22;5101;49.038;8.710;2024-03-22T07:18:52;12.30;99.90
10123;DHT22;5101;49.038;8.710;2024-03-22T07:21:17;12.60;99.90
10123;DHT22;5101;49.038;8.710;2024-03-22T07:23:43;12.80;99.90
10123;DHT22;5101;49.038;8.710;2024-03-22T07:26:09;13.10;99.90
10123;DHT22;5101;49.038;8.710;2024-03-22T07:28:34;13.30;99.90
10123;DHT22;5101;49.038;8.710;2024-03-22T07:31:00;13.40;99.90
10123;DHT22;5101;49.038;8.710;2024-03-22T07:33:25;13.50;99.90
10123;DHT22;5101;49.038;8.710;2024-03-22T07:35:51;13.80;99.90
10123;DHT22;5101;49.038;8.710;2024-03-22T07:38:17;14.00;99.50
10123;DHT22;5101;49.038;8.710;2024-03-22T07:40:42;14.20;98.80
10123;DHT22;5101;49.038;8.710;2024-03-22T07:43:08;14.60;97.90
10123;DHT22;5101;49.038;8.710;2024-03-22T07:45:37;15.20;97.10
10123;DHT22;5101;49.038;8.710;2024-03-22T07:48:02;15.70;95.80
10123;DHT22;5101;49.038;8.710;2024-03-22T07:50:28;16.30;94.90
10123;DHT22;5101;49.038;8.710;2024-03-22T07:52:53;16.80;93.90
10123;DHT22;5101;49.038;8.710;2024-03-22T07:55:19;17.40;92.60
10123;DHT22;5101;49.038;8.710;2024-03-22T07:57:45;18.00;91.40
10123;DHT22;5101;49.038;8.710;2024-03-22T08:00:11;18.50;89.20
10123;DHT22;5101;49.038;8.710;2024-03-22T08:02:37;19.00;86.20
10123;DHT22;5101;49.038;8.710;2024-03-22T08:05:02;19.50;82.60
10123;DHT22;5101;49.038;8.710;2024-03-22T08:07:29;19.90;80.90
10123;DHT22;5101;49.038;8.710;2024-03-22T08:09:54;20.30;79.20
10123;DHT22;5101;49.038;8.710;2024-03-22T08:12:21;20.80;76.80
10123;DHT22;5101;49.038;8.710;2024-03-22T08:14:47;21.30;74.10
10123;DHT22;5101;49.038;8.710;2024-03-22T08:17:12;21.70;72.50
10123;DHT22;5101;49.038;8.710;2024-03-22T08:19:38;22.20;70.00
10123;DHT22;5101;49.038;8.710;2024-03-22T08:22:04;22.70;68.70
10123;DHT22;5101;49.038;8.710;2024-03-22T08:24:30;23.20;67.20
10123;DHT22;5101;49.038;8.710;2024-03-22T08:26:55;23.60;63.90
10123;DHT22;5101;49.038;8.710;2024-03-22T08:29:21;23.90;62.20
10123;DHT22;5101;49.038;8.710;2024-03-22T08:31:46;24.10;61.00
10123;DHT22;5101;49.038;8.710;2024-03-22T08:34:12;24.40;58.30
10123;DHT22;5101;49.038;8.710;2024-03-22T08:36:37;24.10;57.80
10123;DHT22;5101;49.038;8.710;2024-03-22T08:39:03;24.20;57.60
10123;DHT22;5101;49.038;8.710;2024-03-22T08:41:30;24.10;57.10
10123;DHT22;5101;49.038;8.710;2024-03-22T08:43:56;24.20;56.50
10123;DHT22;5101;49.038;8.710;2024-03-22T08:46:22;24.20;56.40
10123;DHT22;5101;49.038;8.710;2024-03-22T08:48:50;24.20;55.70
10123;DHT22;5101;49.038;8.710;2024-03-22T08:51:15;23.90;55.40
10123;DHT22;5101;49.038;8.710;2024-03-22T08:53:41;23.90;55.40
10123;DHT22;5101;49.038;8.710;2024-03-22T08:56:06;24.10;55.60
10123;DHT22;5101;49.038;8.710;2024-03-22T08:58:33;24.20;55.20
10123;DHT22;5101;49.038;8.710;2024-03-22T09:00:58;24.20;55.10
10123;DHT22;5101;49.038;8.710;2024-03-22T09:03:24;24.50;54.70
10123;DHT22;5101;49.038;8.710;2024-03-22T09:05:52;24.80;54.90
10123;DHT22;5101;49.038;8.710;2024-03-22T09:08:19;25.20;52.50
10123;DHT22;5101;49.038;8.710;2024-03-22T09:10:44;25.20;51.80
10123;DHT22;5101;49.038;8.710;2024-03-22T09:13:10;25.30;51.30
10123;DHT22;5101;49.038;8.710;2024-03-22T09:15:38;25.60;50.10
10123;DHT22;5101;49.038;8.710;2024-03-22T09:18:04;25.70;49.00
10123;DHT22;5101;49.038;8.710;2024-03-22T09:20:29;25.50;48.50
10123;DHT22;5101;49.038;8.710;2024-03-22T09:22:55;25.20;48.20
10123;DHT22;5101;49.038;8.710;2024-03-22T09:25:20;25.30;47.40
10123;DHT22;5101;49.038;8.710;2024-03-22T09:27:46;25.40;47.00
10123;DHT22;5101;49.038;8.710;2024-03-22T09:30:12;25.40;46.80
10123;DHT22;5101;49.038;8.710;2024-03-22T09:32:38;25.40;47.30
10123;DHT22;5101;49.038;8.710;2024-03-22T09:35:04;25.30;47.20
10123;DHT22;5101;49.038;8.710;2024-03-22T09:37:29;25.10;47.60
10123;DHT22;5101;49.038;8.710;2024-03-22T09:39:55;24.80;48.30
10123;DHT22;5101;49.038;8.710;2024-03-22T09:42:22;24.50;47.70
10123;DHT22;5101;49.038;8.710;2024-03-22T09:44:48;24.40;48.00
10123;DHT22;5101;49.038;8.710;2024-03-22T09:47:16;24.30;48.70
10123;DHT22;5101;49.038;8.710;2024-03-22T09:49:42;24.00;49.90
10123;DHT22;5101;49.038;8.710;2024-03-22T09:52:12;23.90;50.10
10123;DHT22;5101;49.038;8.710;2024-03-22T09:54:38;23.70;50.00
10123;DHT22;5101;49.038;8.710;2024-03-22T09:57:04;23.40;51.00
10123;DHT22;5101;49.038;8.710;2024-03-22T09:59:30;23.20;51.70
10123;DHT22;5101;49.038;8.710;2024-03-22T10:01:56;22.90;52.20
10123;DHT22;5101;49.038;8.710;2024-03-22T10:04:24;23.00;52.50
10123;DHT22;5101;49.038;8.710;2024-03-22T10:06:49;22.80;53.10
10123;DHT22;5101;49.038;8.710;2024-03-22T10:09:15;22.70;54.10
10123;DHT22;5101;49.038;8.710;2024-03-22T10:11:44;22.50;54.30
10123;DHT22;5101;49.038;8.710;2024-03-22T10:14:09;22.30;54.70
10123;DHT22;5101;49.038;8.710;2024-03-22T10:16:36;22.10;55.90
10123;DHT22;5101;49.038;8.710;2024-03-22T10:19:02;21.90;56.80
10123;DHT22;5101;49.038;8.710;2024-03-22T10:21:27;21.80;57.10
10123;DHT22;5101;49.038;8.710;2024-03-22T10:23:54;21.60;58.40
10123;DHT22;5101;49.038;8.710;2024-03-22T10:26:20;21.50;58.80
10123;DHT22;5101;49.038;8.710;2024-03-22T10:28:46;21.40;59.30
10123;DHT22;5101;49.038;8.710;2024-03-22T10:31:13;21.30;60.10
10123;DHT22;5101;49.038;8.710;2024-03-22T10:33:40;21.20;60.40
10123;DHT22;5101;49.038;8.710;2024-03-22T10:36:06;21.10;61.20
10123;DHT22;5101;49.038;8.710;2024-03-22T10:38:32;21.10;61.80
10123;DHT22;5101;49.038;8.710;2024-03-22T10:40:59;21.00;62.00
10123;DHT22;5101;49.038;8.710;2024-03-22T10:43:25;20.90;62.10
10123;DHT22;5101;49.038;8.710;2024-03-22T10:45:51;20.80;61.90
10123;DHT22;5101;49.038;8.710;2024-03-22T10:48:19;20.70;62.40
10123;DHT22;5101;49.038;8.710;2024-03-22T10:50:46;20.60;62.90
10123;DHT22;5101;49.038;8.710;2024-03-22T10:53:18;20.50;64.30
10123;DHT22;5101;49.038;8.710;2024-03-22T10:55:47;20.50;64.40
10123;DHT22;5101;49.038;8.710;2024-03-22T10:58:18;20.50;64.20
10123;DHT22;5101;49.038;8.710;2024-03-22T11:00:45;20.60;62.30
10123;DHT22;5101;49.038;8.710;2024-03-22T11:03:12;20.70;61.40
10123;DHT22;5101;49.038;8.710;2024-03-22T11:05:48;20.70;61.60
10123;DHT22;5101;49.038;8.710;2024-03-22T11:08:27;20.70;61.80
10123;DHT22;5101;49.038;8.710;2024-03-22T11:10:53;20.60;61.50
10123;DHT22;5101;49.038;8.710;2024-03-22T11:13:19;20.60;61.00
10123;DHT22;5101;49.038;8.710;2024-03-22T11:15:51;20.50;61.30
10123;DHT22;5101;49.038;8.710;2024-03-22T11:18:17;20.50;61.80
10123;DHT22;5101;49.038;8.710;2024-03-22T11:20:43;20.40;61.90
10123;DHT22;5101;49.038;8.710;2024-03-22T11:23:10;20.30;62.50
10123;DHT22;5101;49.038;8.710;2024-03-22T11:25:36;20.20;62.40
10123;DHT22;5101;49.038;8.710;2024-03-22T11:28:02;20.20;62.10
10123;DHT22;5101;49.038;8.710;2024-03-22T11:30:32;20.20;62.20
10123;DHT22;5101;49.038;8.710;2024-03-22T11:33:01;20.30;62.50
10123;DHT22;5101;49.038;8.710;2024-03-22T11:35:27;20.30;62.10
10123;DHT22;5101;49.038;8.710;2024-03-22T11:37:53;20.20;61.40
10123;DHT22;5101;49.038;8.710;2024-03-22T11:40:18;20.30;61.00
10123;DHT22;5101;49.038;8.710;2024-03-22T11:42:50;20.50;60.80
10123;DHT22;5101;49.038;8.710;2024-03-22T11:45:17;20.60;58.90
10123;DHT22;5101;49.038;8.710;2024-03-22T11:47:46;20.70;59.30
10123;DHT22;5101;49.038;8.710;2024-03-22T11:50:12;20.80;59.40
10123;DHT22;5101;49.038;8.710;2024-03-22T11:52:41;20.80;58.40
10123;DHT22;5101;49.038;8.710;2024-03-22T11:55:07;20.80;56.00
10123;DHT22;5101;49.038;8.710;2024-03-22T11:57:32;20.70;52.70
10123;DHT22;5101;49.038;8.710;2024-03-22T12:00:02;20.70;53.00
10123;DHT22;5101;49.038;8.710;2024-03-22T12:02:32;20.80;53.70
10123;DHT22;5101;49.038;8.710;2024-03-22T12:04:57;20.80;53.90
10123;DHT22;5101;49.038;8.710;2024-03-22T12:07:23;20.90;54.00
10123;DHT22;5101;49.038;8.710;2024-03-22T12:09:49;21.00;53.40
10123;DHT22;5101;49.038;8.710;2024-03-22T12:12:15;21.10;53.20
10123;DHT22;5101;49.038;8.710;2024-03-22T12:14:40;21.10;52.70
10123;DHT22;5101;49.038;8.710;2024-03-22T12:17:07;20.90;51.40
10123;DHT22;5101;49.038;8.710;2024-03-22T12:19:33;21.00;51.60
10123;DHT22;5101;49.038;8.710;2024-03-22T12:21:58;20.90;51.00
10123;DHT22;5101;49.038;8.710;2024-03-22T12:24:24;20.90;50.80
10123;DHT22;5101;49.038;8.710;2024-03-22T12:26:50;20.90;50.50
10123;DHT22;5101;49.038;8.710;2024-03-22T12:29:16;20.90;50.40
10123;DHT22;5101;49.038;8.710;2024-03-22T12:31:42;20.90;51.60
10123;DHT22;5101;49.038;8.710;2024-03-22T12:34:08;21.00;51.30
10123;DHT22;5101;49.038;8.710;2024-03-22T12:36:33;21.00;51.70
10123;DHT22;5101;49.038;8.710;2024-03-22T12:38:59;21.10;52.20
10123;DHT22;5101;49.038;8.710;2024-03-22T12:41:25;21.10;52.10
10123;DHT22;5101;49.038;8.710;2024-03-22T12:43:50;21.10;52.10
10123;DHT22;5101;49.038;8.710;2024-03-22T12:46:16;21.20;51.70
10123;DHT22;5101;49.038;8.710;2024-03-22T12:48:41;21.30;51.20
10123;DHT22;5101;49.038;8.710;2024-03-22T12:51:07;21.30;51.20
10123;DHT22;5101;49.038;8.710;2024-03-22T12:53:32;21.20;51.30
10123;DHT22;5101;49.038;8.710;2024-03-22T12:55:58;21.30;51.30
10123;DHT22;5101;49.038;8.710;2024-03-22T12:58:23;21.10;51.00
10123;DHT22;5101;49.038;8.710;2024-03-22T13:00:49;20.90;51.00
10123;DHT22;5101;49.038;8.710;2024-03-22T13:03:14;20.80;51.20
10123;DHT22;5101;49.038;8.710;2024-03-22T13:05:41;20.80;52.40
10123;DHT22;5101;49.038;8.710;2024-03-22T13:08:07;20.90;52.50
10123;DHT22;5101;49.038;8.710;2024-03-22T13:10:32;20.90;53.60
10123;DHT22;5101;49.038;8.710;2024-03-22T13:12:58;20.90;54.20
10123;DHT22;5101;49.038;8.710;2024-03-22T13:15:23;20.90;53.90
10123;DHT22;5101;49.038;8.710;2024-03-22T13:17:49;20.80;53.00
10123;DHT22;5101;49.038;8.710;2024-03-22T13:20:15;20.80;53.40
10123;DHT22;5101;49.038;8.710;2024-03-22T13:22:43;20.80;53.20
10123;DHT22;5101;49.038;8.710;2024-03-22T13:25:09;20.70;52.30
10123;DHT22;5101;49.038;8.710;2024-03-22T13:27:36;20.60;52.80
10123;DHT22;5101;49.038;8.710;2024-03-22T13:30:04;20.60;52.90
10123;DHT22;5101;49.038;8.710;2024-03-22T13:32:30;20.50;53.30
10123;DHT22;5101;49.038;8.710;2024-03-22T13:34:56;20.40;53.30
10123;DHT22;5101;49.038;8.710;2024-03-22T13:37:22;20.40;53.20
10123;DHT22;5101;49.038;8.710;2024-03-22T13:39:48;20.40;53.70
10123;DHT22;5101;49.038;8.710;2024-03-22T13:42:14;20.40;53.60
10123;DHT22;5101;49.038;8.710;2024-03-22T13:44:40;20.50;53.30
10123;DHT22;5101;49.038;8.710;2024-03-22T13:47:06;20.40;52.70
10123;DHT22;5101;49.038;8.710;2024-03-22T13:49:31;20.30;52.00
10123;DHT22;5101;49.038;8.710;2024-03-22T13:51:58;20.30;51.90
10123;DHT22;5101;49.038;8.710;2024-03-22T13:54:27;20.30;51.90
10123;DHT22;5101;49.038;8.710;2024-03-22T13:56:52;20.20;51.90
10123;DHT22;5101;49.038;8.710;2024-03-22T13:59:18;20.10;51.80
10123;DHT22;5101;49.038;8.710;2024-03-22T14:01:44;20.00;52.20
10123;DHT22;5101;49.038;8.710;2024-03-22T14:04:12;20.00;52.00
10123;DHT22;5101;49.038;8.710;2024-03-22T14:06:38;19.90;52.60
10123;DHT22;5101;49.038;8.710;2024-03-22T14:09:04;19.90;52.70
10123;DHT22;5101;49.038;8.710;2024-03-22T14:11:30;19.80;53.10
10123;DHT22;5101;49.038;8.710;2024-03-22T14:13:59;19.70;53.20
10123;DHT22;5101;49.038;8.710;2024-03-22T14:16:24;19.60;53.20
10123;DHT22;5101;49.038;8.710;2024-03-22T14:18:50;19.60;53.60
10123;DHT22;5101;49.038;8.710;2024-03-22T14:21:17;19.50;53.70
10123;DHT22;5101;49.038;8.710;2024-03-22T14:23:49;19.50;54.50
10123;DHT22;5101;49.038;8.710;2024-03-22T14:26:15;19.40;55.20
10123;DHT22;5101;49.038;8.710;2024-03-22T14:28:41;19.40;55.90
10123;DHT22;5101;49.038;8.710;2024-03-22T14:31:07;19.40;56.30
10123;DHT22;5101;49.038;8.710;2024-03-22T14:33:34;19.40;56.50
10123;DHT22;5101;49.038;8.710;2024-03-22T14:36:00;19.40;56.80
10123;DHT22;5101;49.038;8.710;2024-03-22T14:38:26;19.40;57.30
10123;DHT22;5101;49.038;8.710;2024-03-22T14:40:51;19.40;57.50
10123;DHT22;5101;49.038;8.710;2024-03-22T14:43:18;19.50;57.20
10123;DHT22;5101;49.038;8.710;2024-03-22T14:45:43;19.50;58.10
10123;DHT22;5101;49.038;8.710;2024-03-22T14:48:09;19.50;58.60
10123;DHT22;5101;49.038;8.710;2024-03-22T14:50:35;19.60;58.90
10123;DHT22;5101;49.038;8.710;2024-03-22T14:53:04;19.40;58.50
10123;DHT22;5101;49.038;8.710;2024-03-22T14:55:29;19.40;58.80
10123;DHT22;5101;49.038;8.710;2024-03-22T14:57:55;19.40;59.70
10123;DHT22;5101;49.038;8.710;2024-03-22T15:00:20;19.40;60.20
10123;DHT22;5101;49.038;8.710;2024-03-22T15:02:46;19.40;60.20
10123;DHT22;5101;49.038;8.710;2024-03-22T15:05:12;19.30;60.20
10123;DHT22;5101;49.038;8.710;2024-03-22T15:07:38;19.30;59.50
10123;DHT22;5101;49.038;8.710;2024-03-22T15:10:04;19.30;59.30
10123;DHT22;5101;49.038;8.710;2024-03-22T15:12:30;19.20;59.80
10123;DHT22;5101;49.038;8.710;2024-03-22T15:14:55;19.20;60.00
10123;DHT22;5101;49.038;8.710;2024-03-22T15:17:21;19.20;60.00
10123;DHT22;5101;49.038;8.710;2024-03-22T15:19:49;19.20;59.70
10123;DHT22;5101;49.038;8.710;2024-03-22T15:22:15;19.30;59.80
10123;DHT22;5101;49.038;8.710;2024-03-22T15:24:46;19.30;60.00
10123;DHT22;5101;49.038;8.710;2024-03-22T15:27:12;19.30;60.60
10123;DHT22;5101;49.038;8.710;2024-03-22T15:29:38;19.30;60.70
10123;DHT22;5101;49.038;8.710;2024-03-22T15:32:04;19.20;60.70
10123;DHT22;5101;49.038;8.710;2024-03-22T15:34:30;19.20;60.90
10123;DHT22;5101;49.038;8.710;2024-03-22T15:36:56;19.20;61.10
10123;DHT22;5101;49.038;8.710;2024-03-22T15:39:22;19.20;60.90
10123;DHT22;5101;49.038;8.710;2024-03-22T15:41:54;19.10;60.90
10123;DHT22;5101;49.038;8.710;2024-03-22T15:44:19;19.00;60.90
10123;DHT22;5101;49.038;8.710;2024-03-22T15:46:45;19.00;61.50